createdAt,value
2018-03-20T00:02:13.710Z,94649
2018-03-20T00:04:41.902Z,94655
2018-03-20T00:07:10.106Z,94656
2018-03-20T00:09:38.233Z,94654
2018-03-20T00:12:06.362Z,94656
2018-03-20T00:14:34.494Z,94663
2018-03-20T00:17:03.334Z,94659
2018-03-20T00:19:31.462Z,94658
2018-03-20T00:21:59.592Z,94660
2018-03-20T00:24:27.880Z,94666
2018-03-20T00:26:56.094Z,94655
2018-03-20T00:29:24.355Z,94662
2018-03-20T00:31:52.977Z,94660
2018-03-20T00:34:21.163Z,94664
2018-03-20T00:36:49.291Z,94660
2018-03-20T00:39:17.391Z,94658
2018-03-20T00:41:45.515Z,94667
2018-03-20T00:44:13.644Z,94663
2018-03-20T00:46:41.766Z,94662
2018-03-20T00:49:09.894Z,94666
2018-03-20T00:51:38.009Z,94662
2018-03-20T00:54:06.138Z,94667
2018-03-20T00:56:34.264Z,94662
2018-03-20T00:59:02.394Z,94664
2018-03-20T01:01:30.621Z,94663
2018-03-20T01:03:58.855Z,94670
2018-03-20T01:06:26.986Z,94657
2018-03-20T01:08:55.110Z,94664
2018-03-20T01:11:23.724Z,94659
2018-03-20T01:13:51.832Z,94656
2018-03-20T01:16:20.086Z,94658
2018-03-20T01:18:48.250Z,94658
2018-03-20T01:21:16.365Z,94653
2018-03-20T01:23:44.484Z,94653
2018-03-20T01:26:12.664Z,94654
2018-03-20T01:28:41.244Z,94657
2018-03-20T01:31:09.437Z,94653
2018-03-20T01:33:37.557Z,94661
2018-03-20T01:36:05.698Z,94651
2018-03-20T01:38:33.814Z,94644
2018-03-20T01:41:01.928Z,94646
2018-03-20T01:43:30.050Z,94643
2018-03-20T01:45:58.177Z,94643
2018-03-20T01:48:26.336Z,94632
2018-03-20T01:50:54.464Z,94628
2018-03-20T01:53:22.587Z,94642
2018-03-20T01:55:51.282Z,94633
2018-03-20T01:58:19.401Z,94635
2018-03-20T02:00:47.548Z,94632
2018-03-20T02:03:15.793Z,94638
2018-03-20T02:05:44.043Z,94635
2018-03-20T02:08:12.253Z,94634
2018-03-20T02:10:40.512Z,94633
2018-03-20T02:13:08.643Z,94631
2018-03-20T02:15:36.765Z,94633
2018-03-20T02:18:04.897Z,94635
2018-03-20T02:20:33.766Z,94637
2018-03-20T02:35:56.939Z,94654
2018-03-20T02:38:25.085Z,94644
2018-03-20T02:40:53.200Z,94655
2018-03-20T02:43:21.306Z,94644
2018-03-20T02:45:49.425Z,94648
2018-03-20T02:48:17.538Z,94645
2018-03-20T02:50:45.716Z,94644
2018-03-20T02:53:13.864Z,94644
2018-03-20T02:55:42.142Z,94644
2018-03-20T02:58:10.394Z,94647
2018-03-20T03:00:38.500Z,94643
2018-03-20T03:03:06.626Z,94645
2018-03-20T03:05:35.206Z,94650
2018-03-20T03:08:03.381Z,94658
2018-03-20T03:10:31.516Z,94655
2018-03-20T03:12:59.643Z,94668
2018-03-20T03:15:27.764Z,94655
2018-03-20T03:17:56.554Z,94665
2018-03-20T03:20:24.657Z,94668
2018-03-20T03:22:52.796Z,94671
2018-03-20T03:25:20.920Z,94679
2018-03-20T03:27:49.023Z,94676
2018-03-20T03:30:17.163Z,94677
2018-03-20T03:32:45.304Z,94682
2018-03-20T03:35:13.419Z,94676
2018-03-20T03:37:41.538Z,94679
2018-03-20T03:40:09.715Z,94676
2018-03-20T03:42:37.873Z,94696
2018-03-20T03:45:06.105Z,94679
2018-03-20T03:47:34.291Z,94696
2018-03-20T03:50:02.419Z,94689
2018-03-20T03:52:30.543Z,94685
2018-03-20T03:54:58.663Z,94697
2018-03-20T03:57:26.804Z,94694
2018-03-20T03:59:54.914Z,94711
2018-03-20T04:02:23.047Z,94704
2018-03-20T04:04:51.169Z,94699
2018-03-20T04:07:19.264Z,94705
2018-03-20T04:09:47.388Z,94706
2018-03-20T04:12:15.500Z,94714
2018-03-20T04:14:44.294Z,94711
2018-03-20T04:17:12.437Z,94719
2018-03-20T04:19:40.608Z,94704
2018-03-20T04:22:08.820Z,94709
2018-03-20T04:24:36.991Z,94713
2018-03-20T04:27:05.126Z,94718
2018-03-20T04:29:33.308Z,94716
2018-03-20T04:32:01.430Z,94720
2018-03-20T04:34:29.580Z,94715
2018-03-20T04:36:57.730Z,94715
2018-03-20T04:39:25.840Z,94724
2018-03-20T04:41:53.996Z,94718
2018-03-20T04:44:22.134Z,94716
2018-03-20T04:46:50.478Z,94714
2018-03-20T04:49:18.597Z,94723
2018-03-20T04:51:46.717Z,94728
2018-03-20T04:54:14.884Z,94713
2018-03-20T04:56:42.993Z,94718
2018-03-20T04:59:11.786Z,94723
2018-03-20T05:01:39.898Z,94722
2018-03-20T05:04:08.076Z,94729
2018-03-20T05:06:36.315Z,94730
2018-03-20T05:09:04.467Z,94736
2018-03-20T05:11:33.365Z,94740
2018-03-20T05:14:01.498Z,94732
2018-03-20T05:16:29.662Z,94729
2018-03-20T05:18:57.784Z,94742
2018-03-20T05:24:28.596Z,94749
2018-03-20T05:26:56.941Z,94744
2018-03-20T05:29:25.099Z,94752
2018-03-20T05:31:53.236Z,94762
2018-03-20T05:34:21.363Z,94762
2018-03-20T05:36:49.504Z,94765
2018-03-20T05:39:20.112Z,94767
2018-03-20T05:41:48.308Z,94772
2018-03-20T05:44:16.375Z,94769
2018-03-20T05:50:01.598Z,94770
2018-03-20T05:52:29.710Z,94770
2018-03-20T05:54:57.960Z,94778
2018-03-20T05:57:26.108Z,94781
2018-03-20T05:59:57.061Z,94779
2018-03-20T06:02:25.176Z,94774
2018-03-20T06:04:53.300Z,94788
2018-03-20T06:07:21.414Z,94777
2018-03-20T06:09:49.696Z,94788
2018-03-20T06:12:17.846Z,94786
2018-03-20T06:14:45.965Z,94790
2018-03-20T06:17:14.101Z,94797
2018-03-20T06:19:42.225Z,94793
2018-03-20T06:22:10.469Z,94791
2018-03-20T06:24:38.636Z,94795
2018-03-20T06:27:06.783Z,94811
2018-03-20T06:29:34.905Z,94804
2018-03-20T06:32:04.920Z,94808
2018-03-20T06:34:33.073Z,94817
2018-03-20T06:37:01.208Z,94812
2018-03-20T06:39:29.372Z,94825
2018-03-20T06:41:57.569Z,94826
2018-03-20T06:44:25.715Z,94829
2018-03-20T06:46:53.976Z,94835
2018-03-20T06:49:22.771Z,94834
2018-03-20T06:51:50.881Z,94848
2018-03-20T06:54:19.009Z,94853
2018-03-20T06:56:47.153Z,94856
2018-03-20T06:59:19.155Z,94861
2018-03-20T07:01:47.406Z,94856
2018-03-20T07:04:16.280Z,94862
2018-03-20T07:06:44.419Z,94859
2018-03-20T07:09:13.508Z,94866
2018-03-20T07:11:41.624Z,94875
2018-03-20T07:14:09.744Z,94880
2018-03-20T07:16:37.908Z,94874
2018-03-20T07:19:06.048Z,94888
2018-03-20T07:21:34.334Z,94893
2018-03-20T07:24:02.546Z,94887
2018-03-20T07:26:30.784Z,94891
2018-03-20T07:28:59.113Z,94897
2018-03-20T07:31:27.404Z,94898
2018-03-20T07:33:55.548Z,94897
2018-03-20T07:36:23.818Z,94899
2018-03-20T07:38:51.959Z,94905
2018-03-20T07:41:25.143Z,94909
2018-03-20T07:43:53.266Z,94913
2018-03-20T07:46:22.208Z,94905
2018-03-20T07:48:50.352Z,94912
2018-03-20T07:51:18.497Z,94912
2018-03-20T07:53:46.626Z,94906
2018-03-20T07:56:14.763Z,94910
2018-03-20T07:58:42.949Z,94928
2018-03-20T08:01:11.253Z,94911
2018-03-20T08:03:39.415Z,94923
2018-03-20T08:06:07.683Z,94933
2018-03-20T08:08:35.853Z,94929
2018-03-20T08:11:04.107Z,94923
2018-03-20T08:13:32.338Z,94930
2018-03-20T08:16:00.522Z,94945
2018-03-20T08:18:28.636Z,94941
2018-03-20T08:20:56.831Z,94946
2018-03-20T08:23:24.944Z,94947
2018-03-20T08:25:53.057Z,94959
2018-03-20T08:28:22.804Z,94953
2018-03-20T08:43:45.922Z,94967
2018-03-20T08:46:14.033Z,94957
2018-03-20T08:48:42.156Z,94960
2018-03-20T08:51:10.308Z,94973
2018-03-20T08:53:38.410Z,94980
2018-03-20T08:56:06.582Z,94967
2018-03-20T08:58:34.757Z,94968
2018-03-20T09:01:02.871Z,94977
2018-03-20T09:03:30.976Z,94969
2018-03-20T09:05:59.701Z,94980
2018-03-20T09:08:27.865Z,94979
2018-03-20T09:10:55.967Z,94978
2018-03-20T09:13:24.085Z,94978
2018-03-20T09:15:52.176Z,94988
2018-03-20T09:18:20.293Z,94986
2018-03-20T09:20:49.179Z,94987
2018-03-20T09:23:21.618Z,94988
2018-03-20T09:25:49.727Z,94988
2018-03-20T09:28:21.588Z,94991
2018-03-20T09:30:51.159Z,95002
2018-03-20T09:33:20.511Z,94994
2018-03-20T09:35:49.223Z,94994
2018-03-20T09:38:21.689Z,95008
2018-03-20T09:40:49.795Z,95004
2018-03-20T09:43:17.897Z,95004
2018-03-20T09:45:46.020Z,95012
2018-03-20T09:48:14.116Z,95001
2018-03-20T09:50:42.220Z,95003
2018-03-20T09:53:11.121Z,94997
2018-03-20T09:55:39.238Z,94996
2018-03-20T09:58:08.194Z,95009
2018-03-20T10:00:36.306Z,95016
2018-03-20T10:03:04.412Z,95009
2018-03-20T10:05:33.281Z,95014
2018-03-20T10:08:01.376Z,95018
2018-03-20T10:10:30.253Z,95004
2018-03-20T10:13:02.849Z,95011
2018-03-20T10:15:31.112Z,95012
2018-03-20T10:18:08.661Z,95020
2018-03-20T10:20:37.408Z,95016
2018-03-20T10:23:06.418Z,95021
2018-03-20T10:25:34.649Z,95012
2018-03-20T10:28:02.774Z,95022
2018-03-20T10:30:35.325Z,95025
2018-03-20T10:33:03.485Z,95022
2018-03-20T10:35:31.650Z,95031
2018-03-20T10:37:59.929Z,95018
2018-03-20T10:40:28.331Z,95022
2018-03-20T10:42:56.506Z,95021
2018-03-20T10:45:24.771Z,95018
2018-03-20T10:47:53.629Z,95016
2018-03-20T10:50:21.745Z,95017
2018-03-20T10:52:49.865Z,95022
2018-03-20T10:55:17.986Z,95022
2018-03-20T10:57:46.099Z,95030
2018-03-20T11:00:14.247Z,95023
2018-03-20T11:02:47.949Z,95027
2018-03-20T11:05:16.699Z,95025
2018-03-20T11:07:44.837Z,95022
2018-03-20T11:10:13.162Z,95030
2018-03-20T11:12:41.271Z,95024
2018-03-20T11:15:09.380Z,95021
2018-03-20T11:17:37.513Z,95023
2018-03-20T11:20:05.619Z,95032
2018-03-20T11:22:33.709Z,95039
2018-03-20T11:25:01.809Z,95031
2018-03-20T11:27:29.926Z,95039
2018-03-20T11:29:58.065Z,95039
2018-03-20T11:32:26.555Z,95040
2018-03-20T11:34:54.678Z,95031
2018-03-20T11:37:22.789Z,95031
2018-03-20T11:39:50.940Z,95031
2018-03-20T11:42:19.928Z,95045
2018-03-20T11:44:48.030Z,95024
2018-03-20T11:47:16.170Z,95035
2018-03-20T11:49:45.058Z,95035
2018-03-20T11:52:13.181Z,95041
2018-03-20T11:54:41.304Z,95033
2018-03-20T11:57:10.055Z,95042
2018-03-20T11:59:38.162Z,95036
2018-03-20T12:02:06.263Z,95037
2018-03-20T12:04:34.464Z,95037
2018-03-20T12:07:06.623Z,95043
2018-03-20T12:09:50.832Z,95052
2018-03-20T12:12:18.933Z,95045
2018-03-20T12:14:47.033Z,95052
2018-03-20T12:17:19.520Z,95043
2018-03-20T12:19:47.643Z,95048
2018-03-20T12:22:15.711Z,95046
2018-03-20T12:24:43.787Z,95042
2018-03-20T12:27:11.943Z,95035
2018-03-20T12:29:40.870Z,95038
2018-03-20T12:32:08.953Z,95034
2018-03-20T12:34:37.095Z,95040
2018-03-20T12:37:06.084Z,95039
2018-03-20T12:39:34.271Z,95049
2018-03-20T12:42:02.397Z,95048
2018-03-20T12:44:30.520Z,95054
2018-03-20T12:46:58.660Z,95054
2018-03-20T12:49:26.789Z,95055
2018-03-20T12:51:54.911Z,95051
2018-03-20T12:54:23.485Z,95062
2018-03-20T12:56:51.582Z,95060
2018-03-20T12:59:19.739Z,95066
2018-03-20T13:01:47.858Z,95064
2018-03-20T13:04:15.982Z,95064
2018-03-20T13:06:44.848Z,95054
2018-03-20T13:09:12.940Z,95066
2018-03-20T13:11:41.154Z,95066
2018-03-20T13:14:09.589Z,95068
2018-03-20T13:16:40.764Z,95071
2018-03-20T13:19:09.906Z,95066
2018-03-20T13:21:38.006Z,95074
2018-03-20T13:24:09.049Z,95069
2018-03-20T13:26:41.008Z,95070
2018-03-20T13:29:09.447Z,95082
2018-03-20T13:31:37.556Z,95080
2018-03-20T13:34:09.759Z,95075
2018-03-20T13:36:37.853Z,95091
2018-03-20T13:39:05.932Z,95086
2018-03-20T13:41:34.116Z,95080
2018-03-20T13:44:05.641Z,95076
2018-03-20T13:46:33.735Z,95085
2018-03-20T13:49:01.899Z,95087
2018-03-20T13:51:30.737Z,95090
2018-03-20T13:53:59.599Z,95079
2018-03-20T13:56:31.449Z,95085
2018-03-20T13:58:59.573Z,95087
2018-03-20T14:01:28.299Z,95093
2018-03-20T14:03:56.423Z,95098
2018-03-20T14:06:25.297Z,95096
2018-03-20T14:08:53.434Z,95091
2018-03-20T14:11:25.312Z,95111
2018-03-20T14:13:53.453Z,95106
2018-03-20T14:16:25.431Z,95111
2018-03-20T14:18:53.567Z,95118
2018-03-20T14:21:21.663Z,95120
2018-03-20T14:23:49.752Z,95118
2018-03-20T14:26:17.902Z,95120
2018-03-20T14:28:46.014Z,95122
2018-03-20T14:31:14.214Z,95125
2018-03-20T14:33:46.993Z,95127
2018-03-20T14:36:15.190Z,95126
2018-03-20T14:38:44.038Z,95131
2018-03-20T14:41:12.172Z,95144
2018-03-20T14:43:40.551Z,95134
2018-03-20T14:46:08.661Z,95150
2018-03-20T14:48:37.384Z,95144
2018-03-20T14:51:09.362Z,95153
2018-03-20T14:53:37.768Z,95144
2018-03-20T14:56:05.890Z,95148
2018-03-20T14:58:34.074Z,95151
2018-03-20T15:01:02.186Z,95152
2018-03-20T15:03:30.268Z,95160
2018-03-20T15:05:58.387Z,95161
2018-03-20T15:08:26.508Z,95169
2018-03-20T15:10:54.617Z,95177
2018-03-20T15:13:23.492Z,95178
2018-03-20T15:15:51.664Z,95175
2018-03-20T15:18:19.828Z,95173
2018-03-20T15:20:47.906Z,95179
2018-03-20T15:23:16.025Z,95178
2018-03-20T15:25:44.852Z,95183
2018-03-20T15:28:12.985Z,95184
2018-03-20T15:30:41.093Z,95190
2018-03-20T15:33:09.213Z,95188
2018-03-20T15:35:39.078Z,95189
2018-03-20T15:38:07.202Z,95184
2018-03-20T15:40:35.297Z,95191
2018-03-20T15:43:03.404Z,95209
2018-03-20T15:45:31.858Z,95208
2018-03-20T15:48:00.264Z,95204
2018-03-20T15:50:28.489Z,95213
2018-03-20T15:52:56.712Z,95219
2018-03-20T15:55:24.762Z,95224
2018-03-20T15:57:53.036Z,95230
2018-03-20T16:00:21.442Z,95223
2018-03-20T16:02:49.934Z,95231
2018-03-20T16:05:18.285Z,95240
2018-03-20T16:07:46.648Z,95245
2018-03-20T16:10:15.009Z,95246
2018-03-20T16:12:46.715Z,95256
2018-03-20T16:15:16.726Z,95261
2018-03-20T16:17:46.623Z,95261
2018-03-20T16:20:17.333Z,95264
2018-03-20T16:22:46.731Z,95265
2018-03-20T16:25:17.014Z,95279
2018-03-20T16:27:46.367Z,95280
2018-03-20T16:30:16.117Z,95286
2018-03-20T16:32:46.311Z,95301
2018-03-20T16:35:15.150Z,95301
2018-03-20T16:37:48.431Z,95311
2018-03-20T16:40:16.673Z,95308
2018-03-20T16:42:46.817Z,95318
2018-03-20T16:45:16.669Z,95318
2018-03-20T16:47:47.999Z,95314
2018-03-20T16:50:18.054Z,95318
2018-03-20T16:52:47.162Z,95320
2018-03-20T16:55:16.392Z,95325
2018-03-20T16:57:44.834Z,95327
2018-03-20T17:00:13.208Z,95335
2018-03-20T17:02:42.782Z,95341
2018-03-20T17:05:21.702Z,95338
2018-03-20T17:07:51.903Z,95342
2018-03-20T17:10:22.402Z,95346
2018-03-20T17:12:52.520Z,95350
2018-03-20T17:15:21.214Z,95363
2018-03-20T17:17:49.504Z,95363
2018-03-20T17:20:18.396Z,95368
2018-03-20T17:22:46.673Z,95367
2018-03-20T17:25:14.814Z,95369
2018-03-20T17:27:42.947Z,95377
2018-03-20T17:30:11.079Z,95385
2018-03-20T17:32:40.338Z,95395
2018-03-20T17:35:08.499Z,95390
2018-03-20T17:37:36.709Z,95386
2018-03-20T17:40:04.915Z,95394
2018-03-20T17:42:33.069Z,95397
2018-03-20T17:45:01.351Z,95400
2018-03-20T17:47:29.521Z,95415
2018-03-20T17:49:57.669Z,95428
2018-03-20T17:52:25.839Z,95423
2018-03-20T17:54:54.149Z,95422
2018-03-20T17:57:22.621Z,95432
2018-03-20T17:59:50.773Z,95431
2018-03-20T18:02:18.926Z,95442
2018-03-20T18:04:47.793Z,95452
2018-03-20T18:07:15.930Z,95450
2018-03-20T18:09:44.801Z,95453
2018-03-20T18:12:12.988Z,95465
2018-03-20T18:14:41.104Z,95473
2018-03-20T18:17:09.273Z,95475
2018-03-20T18:19:37.428Z,95472
2018-03-20T18:22:05.614Z,95484
2018-03-20T18:24:33.732Z,95478
2018-03-20T18:27:01.874Z,95494
2018-03-20T18:29:30.028Z,95505
2018-03-20T18:31:58.560Z,95505
2018-03-20T18:34:26.694Z,95508
2018-03-20T18:36:54.822Z,95513
2018-03-20T18:39:22.934Z,95513
2018-03-20T18:41:51.128Z,95517
2018-03-20T18:44:19.275Z,95514
2018-03-20T18:46:47.425Z,95520
2018-03-20T18:49:15.555Z,95522
2018-03-20T18:51:43.675Z,95529
2018-03-20T18:54:11.804Z,95537
2018-03-20T18:56:39.904Z,95546
2018-03-20T18:59:08.054Z,95534
2018-03-20T19:01:36.942Z,95541
2018-03-20T19:04:05.077Z,95548
2018-03-20T19:06:33.282Z,95546
2018-03-20T19:09:01.420Z,95548
2018-03-20T19:11:29.534Z,95550
2018-03-20T19:13:57.668Z,95559
2018-03-20T19:16:25.842Z,95563
2018-03-20T19:18:53.965Z,95573
2018-03-20T19:21:22.097Z,95563
2018-03-20T19:23:50.250Z,95574
2018-03-20T19:26:18.690Z,95570
2018-03-20T19:28:47.706Z,95575
2018-03-20T19:31:15.950Z,95582
2018-03-20T19:33:44.246Z,95592
2018-03-20T19:36:12.450Z,95594
2018-03-20T19:38:40.591Z,95599
2018-03-20T19:41:08.783Z,95608
2018-03-20T19:43:36.932Z,95610
2018-03-20T19:46:05.496Z,95617
2018-03-20T19:48:34.412Z,95624
2018-03-20T19:51:02.524Z,95618
2018-03-20T19:53:30.636Z,95621
2018-03-20T19:55:58.760Z,95619
2018-03-20T19:58:26.849Z,95626
2018-03-20T20:00:54.970Z,95637
2018-03-20T20:03:23.144Z,95631
2018-03-20T20:05:51.412Z,95623
2018-03-20T20:08:19.570Z,95638
2018-03-20T20:10:47.793Z,95645
2018-03-20T20:13:15.996Z,95643
2018-03-20T20:15:44.738Z,95648
2018-03-20T20:18:12.860Z,95662
2018-03-20T20:20:41.005Z,95663
2018-03-20T20:23:09.594Z,95653
2018-03-20T20:25:37.817Z,95655
2018-03-20T20:28:05.919Z,95655
2018-03-20T20:30:34.096Z,95667
2018-03-20T20:33:02.233Z,95660
2018-03-20T20:35:30.331Z,95657
2018-03-20T20:37:58.853Z,95669
2018-03-20T20:40:27.034Z,95666
2018-03-20T20:42:55.188Z,95677
2018-03-20T20:45:23.315Z,95690
2018-03-20T20:47:51.451Z,95683
2018-03-20T20:50:19.557Z,95673
2018-03-20T20:52:47.705Z,95679
2018-03-20T20:55:15.865Z,95684
2018-03-20T20:57:43.981Z,95679
2018-03-20T21:00:12.093Z,95686
2018-03-20T21:02:40.226Z,95684
2018-03-20T21:05:09.116Z,95690
2018-03-20T21:07:37.294Z,95687
2018-03-20T21:10:05.462Z,95692
2018-03-20T21:12:34.357Z,95686
2018-03-20T21:15:02.503Z,95694
2018-03-20T21:17:30.601Z,95685
2018-03-20T21:19:58.794Z,95687
2018-03-20T21:22:27.060Z,95682
2018-03-20T21:24:55.303Z,95682
2018-03-20T21:27:23.528Z,95689
2018-03-20T21:29:52.273Z,95686
2018-03-20T21:32:20.392Z,95687
2018-03-20T21:34:48.508Z,95686
2018-03-20T21:37:16.626Z,95688
2018-03-20T21:39:44.749Z,95687
2018-03-20T21:42:12.976Z,95697
2018-03-20T21:44:41.259Z,95694
2018-03-20T21:47:09.683Z,95694
2018-03-20T21:49:37.810Z,95692
2018-03-20T21:52:05.928Z,95686
2018-03-20T21:54:34.439Z,95695
2018-03-20T21:57:03.403Z,95692
2018-03-20T21:59:31.598Z,95700
2018-03-20T22:01:59.752Z,95697
2018-03-20T22:04:28.477Z,95710
2018-03-20T22:06:56.602Z,95710
2018-03-20T22:09:24.763Z,95702
2018-03-20T22:11:52.978Z,95721
2018-03-20T22:14:21.188Z,95705
2018-03-20T22:16:49.311Z,95705
2018-03-20T22:19:17.411Z,95698
2018-03-20T22:21:46.145Z,95702
2018-03-20T22:24:14.300Z,95708
2018-03-20T22:26:42.464Z,95706
2018-03-20T22:29:10.704Z,95711
2018-03-20T22:31:39.591Z,95710
2018-03-20T22:34:07.700Z,95716
2018-03-20T22:36:35.901Z,95722
2018-03-20T22:39:04.058Z,95709
2018-03-20T22:41:32.301Z,95714
2018-03-20T22:44:00.400Z,95718
2018-03-20T22:46:29.344Z,95722
2018-03-20T22:48:57.444Z,95717
2018-03-20T22:51:25.558Z,95715
2018-03-20T22:53:53.778Z,95709
2018-03-20T22:56:21.892Z,95715
2018-03-20T22:58:50.047Z,95717
2018-03-20T23:01:18.112Z,95717
2018-03-20T23:03:47.076Z,95720
2018-03-20T23:06:15.252Z,95721
2018-03-20T23:08:44.269Z,95725
2018-03-20T23:11:12.387Z,95721
2018-03-20T23:13:40.493Z,95734
2018-03-20T23:16:09.429Z,95718
2018-03-20T23:18:37.531Z,95718
2018-03-20T23:21:05.928Z,95726
2018-03-20T23:23:34.022Z,95727
2018-03-20T23:26:02.881Z,95724
2018-03-20T23:28:30.990Z,95710
2018-03-20T23:30:59.079Z,95709
2018-03-20T23:33:27.189Z,95723
2018-03-20T23:35:55.393Z,95718
2018-03-20T23:38:24.339Z,95704
2018-03-20T23:40:52.548Z,95710
2018-03-20T23:43:20.647Z,95710
2018-03-20T23:45:49.537Z,95723
2018-03-20T23:48:18.447Z,95731
2018-03-20T23:50:46.705Z,95719
2018-03-20T23:53:14.804Z,95724
2018-03-20T23:55:42.916Z,95720
2018-03-20T23:58:11.623Z,95726
